Time;durP1;ratioP1;P1;durP2;ratioP2;P2;SDS_P1;SDS_P2;PMS_P1;PMS_P2;Temp;Humidity;BMP_temperature;BMP_pressure;BME280_temperature;BME280_humidity;BME280_pressure;Samples;Min_cycle;Max_cycle;Signal;HPM_P1;HPM_P2
2021/09/26 00:00:12;;;;;;;2.20;1.85;;;9.30;99.90;;;;;;4990453;28;20128;-65
2021/09/26 00:02:41;;;;;;;2.10;0.85;;;9.20;99.90;;;;;;4981220;28;20120;-65
2021/09/26 00:05:10;;;;;;;1.23;0.90;;;9.10;99.90;;;;;;4980525;28;20062;-65
2021/09/26 00:07:38;;;;;;;3.80;1.02;;;9.10;99.90;;;;;;4979851;28;20078;-66
2021/09/26 00:10:07;;;;;;;2.85;1.00;;;9.10;99.90;;;;;;4980769;28;20701;-65
2021/09/26 00:12:35;;;;;;;3.03;0.77;;;9.00;99.90;;;;;;4981470;28;20082;-65
2021/09/26 00:15:06;;;;;;;1.23;0.73;;;9.00;99.90;;;;;;4979830;28;20082;-66
2021/09/26 00:17:33;;;;;;;1.80;0.73;;;8.90;99.90;;;;;;4982650;28;20070;-65
2021/09/26 00:20:00;;;;;;;0.88;0.70;;;8.80;99.90;;;;;;4977015;28;20139;-72
2021/09/26 00:22:27;;;;;;;4.47;1.65;;;8.80;99.90;;;;;;4978341;28;20055;-66
2021/09/26 00:24:54;;;;;;;9.10;1.92;;;8.80;99.90;;;;;;4976902;28;20133;-65
2021/09/26 00:27:21;;;;;;;1.83;1.00;;;8.70;99.90;;;;;;4983417;28;20148;-64
2021/09/26 00:29:48;;;;;;;1.70;0.68;;;8.70;99.90;;;;;;4982366;28;20519;-66
2021/09/26 00:32:15;;;;;;;1.15;0.73;;;8.60;99.90;;;;;;4983003;28;20474;-65
2021/09/26 00:34:42;;;;;;;2.35;1.10;;;8.60;99.90;;;;;;4977558;28;20085;-66
2021/09/26 00:37:09;;;;;;;5.72;2.08;;;8.60;99.90;;;;;;4979604;28;20556;-67
2021/09/26 00:39:36;;;;;;;1.55;0.68;;;8.50;99.90;;;;;;4980127;28;20054;-66
2021/09/26 00:42:03;;;;;;;1.65;1.05;;;8.50;99.90;;;;;;4984023;28;20085;-69
2021/09/26 00:44:30;;;;;;;0.82;0.82;;;8.40;99.90;;;;;;4980787;28;20081;-66
2021/09/26 00:46:57;;;;;;;2.00;0.35;;;8.40;99.90;;;;;;4154682;28;10001246;-66
2021/09/26 00:49:25;;;;;;;1.50;0.93;;;8.40;99.90;;;;;;1027009;28;10001945;-65
2021/09/26 00:51:52;;;;;;;1.60;1.20;;;8.30;99.90;;;;;;4983616;28;20123;-66
2021/09/26 00:54:19;;;;;;;2.53;1.00;;;8.30;99.90;;;;;;4983273;28;20074;-67
2021/09/26 00:56:48;;;;;;;1.05;0.80;;;8.30;99.90;;;;;;4983758;28;20081;-65
2021/09/26 00:59:17;;;;;;;1.75;0.75;;;8.20;99.90;;;;;;4980753;28;20693;-69
2021/09/26 01:10:27;;;;;;;2.03;0.63;;;8.10;99.90;;;;;;4979333;28;20116;-67
2021/09/26 01:13:07;;;;;;;1.95;1.23;;;8.00;99.90;;;;;;4980639;28;20058;-68
2021/09/26 01:15:43;;;;;;;3.33;0.85;;;8.00;99.90;;;;;;4980966;28;20452;-67
2021/09/26 01:18:22;;;;;;;2.92;1.00;;;8.00;99.90;;;;;;4977316;28;20065;-65
2021/09/26 01:20:49;;;;;;;3.63;1.02;;;8.00;99.90;;;;;;4983504;28;20113;-66
2021/09/26 01:23:34;;;;;;;1.05;0.90;;;7.90;99.90;;;;;;4977283;28;20137;-67
2021/09/26 01:26:26;;;;;;;2.50;2.22;;;7.90;99.90;;;;;;4985366;28;20062;-64
2021/09/26 01:29:14;;;;;;;1.40;0.93;;;7.90;99.90;;;;;;4977196;28;20185;-67
2021/09/26 01:31:46;;;;;;;3.35;1.38;;;7.80;99.90;;;;;;4985508;28;20073;-65
2021/09/26 01:34:42;;;;;;;2.47;0.70;;;7.80;99.90;;;;;;4983449;28;20376;-67
2021/09/26 01:37:18;;;;;;;1.33;0.73;;;7.70;99.90;;;;;;4954537;28;20495;-65
2021/09/26 01:39:52;;;;;;;1.40;0.63;;;7.70;99.90;;;;;;4983017;28;20046;-68
2021/09/26 01:42:33;;;;;;;0.57;0.57;;;7.70;99.90;;;;;;4981090;28;20561;-66
2021/09/26 01:45:11;;;;;;;0.90;0.70;;;7.60;99.90;;;;;;4983212;28;20129;-68
2021/09/26 01:47:43;;;;;;;1.55;1.27;;;7.60;99.90;;;;;;4979877;28;20062;-65
2021/09/26 01:50:11;;;;;;;2.22;0.80;;;7.50;99.90;;;;;;4983644;28;20062;-67
2021/09/26 01:52:40;;;;;;;4.38;0.75;;;7.50;99.90;;;;;;4982768;28;20047;-65
2021/09/26 01:55:09;;;;;;;1.13;1.02;;;7.50;99.90;;;;;;4983513;28;20054;-67
2021/09/26 01:57:39;;;;;;;1.42;1.00;;;7.40;99.90;;;;;;4963029;28;20151;-67
2021/09/26 02:00:08;;;;;;;3.17;0.70;;;7.40;99.90;;;;;;4983266;28;20596;-66
2021/09/26 02:02:38;;;;;;;2.15;0.68;;;7.30;99.90;;;;;;4982966;28;20120;-69
2021/09/26 02:05:07;;;;;;;3.10;0.80;;;7.30;99.90;;;;;;4982763;28;20435;-65
2021/09/26 02:07:38;;;;;;;1.20;0.80;;;7.30;99.90;;;;;;4982054;28;20070;-65
2021/09/26 02:10:06;;;;;;;1.60;0.98;;;7.30;99.90;;;;;;4983832;28;20081;-69
2021/09/26 02:12:34;;;;;;;3.38;0.98;;;7.30;99.90;;;;;;4980954;28;20054;-68
2021/09/26 02:15:06;;;;;;;2.75;1.15;;;7.30;99.90;;;;;;4979554;28;20046;-65
2021/09/26 02:17:36;;;;;;;4.20;1.10;;;7.20;99.90;;;;;;4982109;28;20054;-66
2021/09/26 02:20:05;;;;;;;2.28;1.40;;;7.20;99.90;;;;;;4982553;28;20070;-66
2021/09/26 02:22:34;;;;;;;2.88;0.73;;;7.20;99.90;;;;;;4983268;28;20082;-67
2021/09/26 02:25:05;;;;;;;2.70;0.80;;;7.20;99.90;;;;;;4982871;28;20109;-66
2021/09/26 02:27:33;;;;;;;1.85;0.85;;;7.20;99.90;;;;;;4982843;28;20146;-65
2021/09/26 02:30:00;;;;;;;1.77;0.90;;;7.20;99.90;;;;;;4983794;28;20505;-67
2021/09/26 02:32:27;;;;;;;2.63;1.27;;;7.20;99.90;;;;;;4984342;28;20053;-68
2021/09/26 02:34:54;;;;;;;1.08;0.75;;;7.10;99.90;;;;;;4981687;28;20137;-66
2021/09/26 02:37:22;;;;;;;0.85;0.65;;;7.10;99.90;;;;;;4983562;28;20061;-66
2021/09/26 02:39:49;;;;;;;0.98;0.60;;;7.10;99.90;;;;;;4983578;28;20078;-68
2021/09/26 02:42:40;;;;;;;1.73;0.70;;;7.10;99.90;;;;;;4981055;28;20617;-67
2021/09/26 02:45:22;;;;;;;3.00;1.05;;;7.10;99.90;;;;;;4981235;28;20054;-69
2021/09/26 02:48:14;;;;;;;1.60;0.90;;;7.10;99.90;;;;;;4978652;28;20099;-67
2021/09/26 02:50:42;;;;;;;1.60;0.77;;;7.00;99.90;;;;;;4970727;28;20472;-65
2021/09/26 02:53:11;;;;;;;1.50;0.95;;;7.00;99.90;;;;;;4979377;28;20137;-65
2021/09/26 02:55:40;;;;;;;1.45;0.85;;;7.00;99.90;;;;;;4978452;28;20956;-67
2021/09/26 02:58:07;;;;;;;3.10;1.05;;;6.90;99.90;;;;;;4984535;28;20069;-66
2021/09/26 03:00:37;;;;;;;1.35;0.60;;;6.90;99.90;;;;;;4981593;28;20100;-66
2021/09/26 03:03:16;;;;;;;0.90;0.70;;;6.90;99.90;;;;;;4982542;28;20145;-65
2021/09/26 03:05:44;;;;;;;2.75;1.00;;;6.90;99.90;;;;;;4980947;28;20078;-66
2021/09/26 03:08:12;;;;;;;2.42;1.13;;;6.80;99.90;;;;;;4983668;28;20487;-64
2021/09/26 03:10:41;;;;;;;2.35;1.95;;;6.90;99.90;;;;;;4982954;28;20108;-66
2021/09/26 03:13:08;;;;;;;3.15;0.80;;;6.90;99.90;;;;;;4977447;28;20089;-66
2021/09/26 03:15:35;;;;;;;3.28;1.13;;;6.90;99.90;;;;;;4981363;28;20054;-67
2021/09/26 03:18:03;;;;;;;1.95;0.93;;;6.80;99.90;;;;;;4982922;28;20069;-69
2021/09/26 03:20:30;;;;;;;1.85;1.05;;;6.80;99.90;;;;;;4981159;28;20049;-65
2021/09/26 03:22:57;;;;;;;2.88;1.20;;;6.80;99.90;;;;;;4976523;28;20089;-65
2021/09/26 03:25:24;;;;;;;3.55;1.02;;;6.80;99.90;;;;;;4983072;28;20519;-67
2021/09/26 03:27:51;;;;;;;1.35;0.77;;;6.70;99.90;;;;;;4983066;28;20495;-65
2021/09/26 03:30:18;;;;;;;1.20;1.10;;;6.70;99.90;;;;;;4982715;28;20056;-69
2021/09/26 03:32:45;;;;;;;4.25;0.80;;;6.70;99.90;;;;;;4978855;28;20050;-66
2021/09/26 03:35:13;;;;;;;1.77;0.63;;;6.70;99.90;;;;;;4981604;28;20101;-65
2021/09/26 03:37:42;;;;;;;2.25;1.10;;;6.70;99.90;;;;;;4980345;28;20077;-67
2021/09/26 03:40:13;;;;;;;2.72;0.80;;;6.70;99.90;;;;;;4983396;28;20058;-70
2021/09/26 03:42:41;;;;;;;3.45;1.30;;;6.70;99.90;;;;;;4979832;28;20114;-66
2021/09/26 03:45:10;;;;;;;2.10;0.95;;;6.70;99.90;;;;;;4980365;28;20145;-65
2021/09/26 03:47:38;;;;;;;1.00;0.88;;;6.70;99.90;;;;;;4982910;28;20551;-68
2021/09/26 03:50:06;;;;;;;1.90;1.15;;;6.70;99.90;;;;;;4984073;28;20505;-65
2021/09/26 03:52:35;;;;;;;1.77;0.60;;;6.70;99.90;;;;;;4982790;28;20149;-67
2021/09/26 03:55:07;;;;;;;1.17;0.88;;;6.60;99.90;;;;;;4980750;28;20073;-65
2021/09/26 03:57:35;;;;;;;1.17;0.77;;;6.60;99.90;;;;;;4982523;28;20050;-66
2021/09/26 04:00:04;;;;;;;3.65;0.80;;;6.60;99.90;;;;;;4982199;28;20046;-65
2021/09/26 04:02:37;;;;;;;0.65;0.65;;;6.60;99.90;;;;;;4983985;28;20047;-66
2021/09/26 04:05:06;;;;;;;1.58;0.80;;;6.60;99.90;;;;;;4980955;28;20050;-67
2021/09/26 04:07:33;;;;;;;1.00;0.90;;;6.60;99.90;;;;;;4980779;28;20176;-65
2021/09/26 04:09:59;;;;;;;2.13;1.35;;;6.60;99.90;;;;;;4981970;28;20069;-66
2021/09/26 04:12:27;;;;;;;2.42;0.90;;;6.60;99.90;;;;;;4981475;28;20141;-66
2021/09/26 04:14:53;;;;;;;2.47;1.40;;;6.60;99.90;;;;;;4978331;28;20137;-65
2021/09/26 04:17:20;;;;;;;1.35;0.90;;;6.60;99.90;;;;;;4983990;28;20070;-67
2021/09/26 04:19:47;;;;;;;1.23;0.80;;;6.70;99.90;;;;;;4982633;28;20085;-69
2021/09/26 04:22:14;;;;;;;2.65;0.70;;;6.60;99.90;;;;;;4983424;28;20081;-66
2021/09/26 04:24:41;;;;;;;3.45;0.77;;;6.60;99.90;;;;;;4980226;28;20080;-70
2021/09/26 04:27:08;;;;;;;1.65;1.17;;;6.60;99.90;;;;;;4982020;28;20097;-65
2021/09/26 04:29:35;;;;;;;1.98;1.00;;;6.60;99.90;;;;;;4981848;28;20758;-64
2021/09/26 04:32:02;;;;;;;1.92;1.15;;;6.60;99.90;;;;;;4981087;28;20164;-68
2021/09/26 04:34:29;;;;;;;1.02;0.75;;;6.60;99.90;;;;;;4979539;28;20137;-67
2021/09/26 04:36:57;;;;;;;3.05;0.93;;;6.60;99.90;;;;;;4978048;28;20457;-67
2021/09/26 04:39:24;;;;;;;0.90;0.80;;;6.60;99.90;;;;;;4981469;28;20522;-67
2021/09/26 04:41:51;;;;;;;4.32;1.70;;;6.60;99.90;;;;;;4980685;28;20443;-69
2021/09/26 04:44:18;;;;;;;1.30;0.80;;;6.60;99.90;;;;;;4982461;28;20162;-65
2021/09/26 04:46:45;;;;;;;1.75;0.70;;;6.60;99.90;;;;;;4981570;28;20412;-67
2021/09/26 04:49:12;;;;;;;1.10;1.00;;;6.60;99.90;;;;;;4976741;28;20050;-67
2021/09/26 04:51:39;;;;;;;1.45;1.10;;;6.70;99.90;;;;;;4976592;28;20077;-67
2021/09/26 04:54:06;;;;;;;2.15;0.90;;;6.70;99.90;;;;;;4965477;28;20070;-65
2021/09/26 04:56:33;;;;;;;4.25;1.20;;;6.70;99.90;;;;;;4983009;28;20078;-68
2021/09/26 04:59:00;;;;;;;1.63;0.70;;;6.70;99.90;;;;;;4981045;28;20074;-65
2021/09/26 05:01:27;;;;;;;1.10;0.60;;;6.70;99.90;;;;;;4984961;28;20082;-65
2021/09/26 05:03:56;;;;;;;2.65;0.98;;;6.80;99.90;;;;;;4982614;28;20062;-64
2021/09/26 05:06:22;;;;;;;0.70;0.70;;;6.80;99.90;;;;;;4974330;28;20089;-66
2021/09/26 05:08:49;;;;;;;1.70;0.75;;;6.80;99.90;;;;;;4976651;28;20074;-66
2021/09/26 05:11:16;;;;;;;1.10;1.00;;;6.90;99.90;;;;;;4979539;28;20392;-68
2021/09/26 05:13:43;;;;;;;1.40;0.93;;;6.90;99.90;;;;;;4981543;28;20644;-66
2021/09/26 05:16:10;;;;;;;1.67;0.80;;;6.90;99.90;;;;;;4980180;28;20050;-69
2021/09/26 05:18:38;;;;;;;1.00;0.90;;;7.00;99.90;;;;;;4965557;28;20471;-67
2021/09/26 05:21:05;;;;;;;3.28;0.82;;;7.00;99.90;;;;;;4976687;28;20050;-68
2021/09/26 05:23:34;;;;;;;4.20;0.98;;;7.00;99.90;;;;;;4983033;28;20074;-66
2021/09/26 05:26:03;;;;;;;1.20;1.00;;;7.10;99.90;;;;;;4980413;28;20081;-68
2021/09/26 05:28:30;;;;;;;1.00;0.85;;;7.10;99.90;;;;;;4982075;28;20046;-66
2021/09/26 05:30:57;;;;;;;4.03;1.05;;;7.20;99.90;;;;;;4976615;28;20136;-64
2021/09/26 05:33:31;;;;;;;2.38;1.20;;;7.20;99.90;;;;;;4982123;28;20050;-69
2021/09/26 05:35:58;;;;;;;3.88;1.20;;;7.30;99.90;;;;;;4980319;28;20066;-68
2021/09/26 05:38:25;;;;;;;1.77;1.17;;;7.30;99.90;;;;;;4978335;28;20744;-66
2021/09/26 05:40:52;;;;;;;2.83;1.58;;;7.40;99.90;;;;;;4980093;28;20129;-67
2021/09/26 05:43:19;;;;;;;2.70;1.45;;;7.50;99.90;;;;;;4981628;28;20162;-66
2021/09/26 05:45:48;;;;;;;3.80;1.73;;;7.50;99.90;;;;;;4981807;28;20046;-65
2021/09/26 05:48:16;;;;;;;4.80;1.38;;;7.50;99.90;;;;;;4977513;28;20105;-65
2021/09/26 05:50:43;;;;;;;2.42;1.38;;;7.60;99.90;;;;;;4982594;28;20089;-64
2021/09/26 05:53:10;;;;;;;2.58;1.33;;;7.70;99.90;;;;;;4980474;28;20052;-70
2021/09/26 05:55:37;;;;;;;2.47;1.50;;;7.80;99.90;;;;;;4982115;28;20061;-68
2021/09/26 05:58:04;;;;;;;2.05;1.38;;;7.80;99.90;;;;;;4981030;28;20485;-66
2021/09/26 06:00:31;;;;;;;3.30;1.10;;;7.90;99.90;;;;;;4980837;28;20097;-67
2021/09/26 06:02:58;;;;;;;1.92;1.13;;;8.00;99.90;;;;;;4973836;28;20050;-70
2021/09/26 06:05:25;;;;;;;3.40;1.23;;;8.10;99.90;;;;;;4983294;28;20054;-67
2021/09/26 06:07:52;;;;;;;6.32;2.30;;;8.20;99.90;;;;;;4985466;28;20109;-68
2021/09/26 06:10:19;;;;;;;1.55;1.15;;;8.40;99.90;;;;;;4985664;28;20592;-66
2021/09/26 06:12:46;;;;;;;1.83;1.38;;;8.40;99.90;;;;;;4981753;28;20109;-67
2021/09/26 06:15:13;;;;;;;7.97;1.50;;;8.50;99.90;;;;;;4968272;28;20073;-65
2021/09/26 06:17:40;;;;;;;2.28;1.48;;;8.60;99.90;;;;;;4982701;28;20104;-67
2021/09/26 06:20:08;;;;;;;1.58;1.45;;;8.70;99.90;;;;;;4986347;28;20046;-66
2021/09/26 06:22:35;;;;;;;1.52;1.00;;;8.80;99.90;;;;;;4984772;28;20830;-66
2021/09/26 06:25:03;;;;;;;2.60;1.67;;;8.90;99.90;;;;;;4981562;28;20738;-66
2021/09/26 06:27:30;;;;;;;2.45;1.23;;;9.00;99.90;;;;;;4982090;28;20113;-65
2021/09/26 06:29:57;;;;;;;1.38;1.08;;;9.10;99.90;;;;;;4980586;28;20105;-65
2021/09/26 06:32:24;;;;;;;1.77;0.85;;;9.20;99.90;;;;;;4982506;28;20046;-64
2021/09/26 06:34:51;;;;;;;1.95;1.02;;;9.40;99.90;;;;;;4984896;28;20060;-65
2021/09/26 06:37:18;;;;;;;1.45;0.82;;;9.50;99.90;;;;;;4984379;28;20089;-65
2021/09/26 06:39:45;;;;;;;7.13;1.13;;;9.70;99.90;;;;;;4968518;28;20416;-65
2021/09/26 06:42:12;;;;;;;4.57;1.10;;;9.80;99.90;;;;;;4984025;28;20476;-65
2021/09/26 06:44:39;;;;;;;2.67;1.15;;;9.90;99.90;;;;;;4981689;28;20165;-67
2021/09/26 06:47:06;;;;;;;1.63;1.08;;;10.10;99.90;;;;;;4982909;28;20054;-68
2021/09/26 06:49:33;;;;;;;1.25;0.70;;;10.20;99.90;;;;;;4984738;28;20074;-66
2021/09/26 06:52:00;;;;;;;1.52;0.80;;;10.30;99.90;;;;;;4984424;28;20145;-67
2021/09/26 06:54:27;;;;;;;2.15;0.95;;;10.40;99.90;;;;;;4982629;28;20110;-68
2021/09/26 06:56:54;;;;;;;1.00;0.60;;;10.50;99.90;;;;;;4980796;28;20074;-66
2021/09/26 06:59:20;;;;;;;2.78;0.60;;;10.60;99.90;;;;;;4966004;28;20089;-68
2021/09/26 07:01:47;;;;;;;1.20;0.60;;;10.70;99.90;;;;;;4976269;28;20114;-66
2021/09/26 07:04:15;;;;;;;1.40;1.15;;;10.80;99.90;;;;;;4983995;28;20047;-65
2021/09/26 07:06:41;;;;;;;3.83;0.73;;;10.90;99.90;;;;;;4985209;28;20085;-67
2021/09/26 07:09:08;;;;;;;0.52;0.52;;;11.00;99.90;;;;;;4979864;28;20118;-66
2021/09/26 07:11:35;;;;;;;0.75;0.40;;;11.10;99.90;;;;;;4984065;28;20113;-67
2021/09/26 07:14:02;;;;;;;6.10;1.02;;;11.20;99.90;;;;;;4981336;28;20039;-68
2021/09/26 07:16:29;;;;;;;2.33;0.65;;;11.40;99.90;;;;;;4982632;28;20184;-68
2021/09/26 07:18:56;;;;;;;1.05;0.30;;;11.40;99.90;;;;;;4982524;28;20141;-65
2021/09/26 07:21:23;;;;;;;1.02;0.50;;;11.50;99.90;;;;;;4984666;28;20149;-67
2021/09/26 07:23:50;;;;;;;0.75;0.52;;;11.60;99.90;;;;;;4983519;28;20153;-69
2021/09/26 07:26:17;;;;;;;3.65;0.63;;;11.80;99.90;;;;;;4984070;28;20500;-67
2021/09/26 07:28:44;;;;;;;3.60;0.60;;;11.90;99.90;;;;;;4983857;28;20473;-67
2021/09/26 07:31:12;;;;;;;0.75;0.50;;;12.00;99.90;;;;;;4980750;28;20655;-67
2021/09/26 07:33:38;;;;;;;0.75;0.30;;;12.10;99.90;;;;;;4983084;28;20150;-66
2021/09/26 07:36:05;;;;;;;0.70;0.70;;;12.20;99.90;;;;;;4978973;28;20094;-68
2021/09/26 07:38:32;;;;;;;2.47;0.40;;;12.30;99.90;;;;;;4984369;28;20039;-67
2021/09/26 07:41:00;;;;;;;0.85;0.60;;;12.40;99.90;;;;;;4974191;28;20644;-67
2021/09/26 07:43:27;;;;;;;0.57;0.32;;;12.50;99.90;;;;;;4984750;28;20476;-65
2021/09/26 07:45:56;;;;;;;8.45;0.70;;;12.60;99.90;;;;;;4983313;28;20099;-68
2021/09/26 07:48:23;;;;;;;0.88;0.43;;;12.70;99.90;;;;;;4967355;28;20046;-65
2021/09/26 07:50:51;;;;;;;2.15;0.60;;;12.80;99.90;;;;;;4965703;28;20124;-70
2021/09/26 07:53:19;;;;;;;0.65;0.52;;;12.80;99.90;;;;;;4983263;28;20832;-67
2021/09/26 07:55:51;;;;;;;1.42;0.85;;;12.90;99.90;;;;;;4980243;28;20055;-69
2021/09/26 07:58:18;;;;;;;1.00;0.47;;;13.00;99.90;;;;;;4984020;28;20104;-68
2021/09/26 08:00:45;;;;;;;4.28;1.23;;;13.00;99.90;;;;;;4980536;28;20174;-68
2021/09/26 08:03:13;;;;;;;1.88;0.43;;;13.10;99.90;;;;;;4978745;28;20081;-69
2021/09/26 08:05:40;;;;;;;2.22;0.68;;;13.30;99.90;;;;;;4981755;28;20042;-68
2021/09/26 08:08:07;;;;;;;1.95;0.40;;;13.40;99.90;;;;;;4982240;28;20055;-66
2021/09/26 08:10:34;;;;;;;0.47;0.30;;;13.40;99.90;;;;;;4979558;28;20136;-65
2021/09/26 08:13:01;;;;;;;1.80;0.40;;;13.50;99.90;;;;;;4980491;28;20647;-66
2021/09/26 08:15:28;;;;;;;1.13;0.28;;;13.50;99.90;;;;;;4981703;28;20093;-67
2021/09/26 08:17:55;;;;;;;0.30;0.30;;;13.60;99.90;;;;;;4984352;28;20081;-68
2021/09/26 08:20:22;;;;;;;1.98;0.82;;;13.80;99.90;;;;;;4979948;28;20126;-68
2021/09/26 08:22:52;;;;;;;2.08;1.10;;;13.90;99.90;;;;;;4982966;28;20113;-69
2021/09/26 08:25:22;;;;;;;0.73;0.30;;;13.90;99.90;;;;;;4979659;28;20473;-69
2021/09/26 08:27:54;;;;;;;0.93;0.30;;;14.00;99.90;;;;;;4982281;28;20491;-69
2021/09/26 08:30:21;;;;;;;1.13;0.52;;;14.00;99.90;;;;;;4980706;28;20054;-65
2021/09/26 08:32:48;;;;;;;1.15;0.22;;;14.10;99.90;;;;;;4982835;28;20113;-66
2021/09/26 08:35:16;;;;;;;0.50;0.43;;;14.10;99.90;;;;;;4979791;28;20128;-68
2021/09/26 08:37:44;;;;;;;1.48;0.28;;;14.20;99.90;;;;;;4982405;28;20050;-67
2021/09/26 08:40:12;;;;;;;0.38;0.38;;;14.40;99.90;;;;;;4981134;28;20057;-68
2021/09/26 08:42:40;;;;;;;0.40;0.20;;;14.60;99.90;;;;;;4982532;28;20120;-66
2021/09/26 08:45:12;;;;;;;1.88;0.28;;;14.70;99.90;;;;;;4978989;28;20105;-66
2021/09/26 08:47:40;;;;;;;0.10;0.10;;;14.80;99.90;;;;;;4981438;28;20116;-66
2021/09/26 08:50:10;;;;;;;0.60;0.30;;;14.90;99.90;;;;;;4979687;28;20082;-66
2021/09/26 08:52:37;;;;;;;0.30;0.30;;;14.90;99.90;;;;;;4978257;28;20688;-67
2021/09/26 08:55:05;;;;;;;0.70;0.50;;;15.00;99.90;;;;;;4981129;28;20137;-65
2021/09/26 08:57:32;;;;;;;0.98;0.40;;;15.00;99.90;;;;;;4981898;28;20105;-66
2021/09/26 08:59:59;;;;;;;3.30;0.40;;;15.00;99.90;;;;;;4981338;28;20117;-68
2021/09/26 09:02:26;;;;;;;1.90;0.40;;;15.10;99.90;;;;;;4959333;28;20042;-66
2021/09/26 09:04:53;;;;;;;0.40;0.40;;;15.30;99.90;;;;;;4981239;28;20053;-68
2021/09/26 09:07:20;;;;;;;0.47;0.25;;;15.30;99.90;;;;;;4980285;28;20057;-67
2021/09/26 09:09:50;;;;;;;1.30;0.30;;;15.50;99.90;;;;;;4983805;28;20078;-68
2021/09/26 09:12:18;;;;;;;2.27;0.30;;;15.60;99.90;;;;;;4978175;28;20077;-66
2021/09/26 09:15:13;;;;;;;2.00;0.40;;;15.70;99.90;;;;;;4983400;28;20112;-73
2021/09/26 09:17:42;;;;;;;1.02;0.60;;;15.80;99.90;;;;;;4973245;28;20051;-68
2021/09/26 09:20:19;;;;;;;0.43;0.20;;;15.80;99.90;;;;;;4981800;28;20699;-65
2021/09/26 09:23:27;;;;;;;1.85;0.30;;;15.80;99.90;;;;;;4980934;28;20796;-68
2021/09/26 09:25:58;;;;;;;2.25;0.35;;;15.90;99.90;;;;;;4980638;28;20081;-66
2021/09/26 09:28:28;;;;;;;1.27;0.35;;;15.90;99.90;;;;;;4983521;28;20868;-66
2021/09/26 09:31:01;;;;;;;0.98;0.50;;;15.90;99.90;;;;;;4978559;28;20456;-69
2021/09/26 09:33:44;;;;;;;0.70;0.63;;;16.00;99.90;;;;;;4983174;28;20495;-66
2021/09/26 09:36:23;;;;;;;3.45;0.40;;;16.10;99.90;;;;;;4977538;28;20051;-66
2021/09/26 09:38:55;;;;;;;1.13;0.40;;;16.20;99.90;;;;;;4982727;28;20085;-68
2021/09/26 09:41:35;;;;;;;0.70;0.32;;;16.30;99.90;;;;;;4984058;28;20081;-68
2021/09/26 09:44:04;;;;;;;0.73;0.30;;;16.30;99.90;;;;;;4984242;28;20042;-69
2021/09/26 09:46:34;;;;;;;0.70;0.35;;;16.40;99.90;;;;;;4983534;28;20423;-68
2021/09/26 09:49:17;;;;;;;0.70;0.70;;;16.40;99.90;;;;;;4978989;28;20054;-67
2021/09/26 09:51:50;;;;;;;1.17;0.47;;;16.40;99.90;;;;;;4984815;28;20566;-65
2021/09/26 09:54:31;;;;;;;1.77;0.40;;;16.50;99.90;;;;;;4985242;28;20047;-69
2021/09/26 09:57:12;;;;;;;1.02;0.85;;;16.50;99.90;;;;;;4984145;28;20051;-66
2021/09/26 09:59:39;;;;;;;1.55;0.47;;;16.50;99.90;;;;;;4985969;28;20136;-66
2021/09/26 10:02:07;;;;;;;0.63;0.30;;;16.60;99.90;;;;;;4986100;28;20110;-66
2021/09/26 10:04:44;;;;;;;3.90;0.30;;;16.70;99.90;;;;;;4985361;28;20458;-69
2021/09/26 10:07:23;;;;;;;1.10;0.22;;;16.80;99.90;;;;;;4980567;28;20185;-66
2021/09/26 10:09:51;;;;;;;0.40;0.30;;;16.90;99.90;;;;;;4984878;28;20054;-67
2021/09/26 10:12:25;;;;;;;0.45;0.20;;;17.00;99.90;;;;;;4980311;28;20042;-66
2021/09/26 10:14:55;;;;;;;0.38;0.38;;;17.00;99.90;;;;;;4984565;28;20054;-65
2021/09/26 10:17:23;;;;;;;0.85;0.50;;;17.10;99.90;;;;;;4985006;28;20078;-67
2021/09/26 10:19:50;;;;;;;0.57;0.28;;;17.20;99.90;;;;;;4986354;28;20157;-66
2021/09/26 10:22:18;;;;;;;0.55;0.32;;;17.30;99.90;;;;;;4967161;28;20132;-66
2021/09/26 10:24:48;;;;;;;0.47;0.30;;;17.30;99.90;;;;;;4985401;28;20049;-65
2021/09/26 10:27:21;;;;;;;0.10;0.00;;;17.40;99.90;;;;;;4981516;28;20078;-67
2021/09/26 10:29:53;;;;;;;0.20;0.13;;;17.50;99.90;;;;;;4986061;28;20149;-66
2021/09/26 10:32:21;;;;;;;0.73;0.10;;;17.50;99.90;;;;;;4983049;28;20153;-65
2021/09/26 10:34:48;;;;;;;1.08;0.20;;;17.50;99.90;;;;;;4984220;28;20138;-65
2021/09/26 10:37:15;;;;;;;0.20;0.03;;;17.50;99.90;;;;;;4981558;28;20054;-67
2021/09/26 10:39:43;;;;;;;0.70;0.20;;;17.60;99.90;;;;;;4985239;28;20109;-65
2021/09/26 10:42:11;;;;;;;0.60;0.17;;;17.70;99.90;;;;;;4983203;28;20047;-66
2021/09/26 10:44:41;;;;;;;0.15;0.15;;;17.70;99.90;;;;;;4984470;28;20089;-67
2021/09/26 10:47:25;;;;;;;0.28;0.10;;;17.80;99.90;;;;;;4981002;28;20141;-67
2021/09/26 10:50:02;;;;;;;0.08;0.08;;;17.80;99.90;;;;;;4976778;28;20582;-69
2021/09/26 10:52:42;;;;;;;0.70;0.40;;;17.80;99.90;;;;;;4983169;28;20129;-68
2021/09/26 10:55:15;;;;;;;1.65;0.20;;;17.90;99.90;;;;;;4977444;28;20120;-67
2021/09/26 10:57:43;;;;;;;0.47;0.20;;;18.00;99.90;;;;;;4982295;28;20054;-66
2021/09/26 11:00:31;;;;;;;0.03;0.03;;;18.10;99.90;;;;;;4980409;28;20074;-67
2021/09/26 11:03:11;;;;;;;0.63;0.63;;;18.20;99.90;;;;;;4980174;28;20047;-66
2021/09/26 11:05:48;;;;;;;0.63;0.63;;;18.20;99.90;;;;;;4983449;28;20159;-67
2021/09/26 11:08:43;;;;;;;0.13;0.10;;;18.20;99.90;;;;;;4981909;28;20136;-68
2021/09/26 11:11:34;;;;;;;0.17;0.00;;;18.20;99.90;;;;;;4982611;28;20049;-66
2021/09/26 11:14:01;;;;;;;0.25;0.20;;;18.30;99.90;;;;;;4981205;28;20570;-68
2021/09/26 11:16:55;;;;;;;1.60;0.80;;;18.30;99.90;;;;;;4983044;28;20050;-66
2021/09/26 11:19:26;;;;;;;1.73;0.80;;;18.30;99.90;;;;;;4965964;28;20097;-68
2021/09/26 11:22:01;;;;;;;0.80;0.55;;;17.90;99.90;;;;;;4982861;28;20046;-68
2021/09/26 11:24:37;;;;;;;1.25;0.77;;;17.70;99.90;;;;;;4983252;28;20100;-69
2021/09/26 11:27:13;;;;;;;2.38;0.50;;;17.60;99.90;;;;;;4981740;28;20503;-66
2021/09/26 11:29:42;;;;;;;3.35;0.63;;;17.30;99.90;;;;;;4983954;28;20085;-67
2021/09/26 11:32:22;;;;;;;2.13;0.55;;;17.20;99.90;;;;;;4963313;28;20039;-68
2021/09/26 11:34:51;;;;;;;1.80;0.40;;;17.30;99.90;;;;;;4985407;28;20086;-67
2021/09/26 11:37:38;;;;;;;1.88;0.65;;;17.30;99.90;;;;;;4979972;28;20078;-68
2021/09/26 11:40:09;;;;;;;1.40;0.50;;;17.10;99.90;;;;;;4982200;28;20050;-68
2021/09/26 11:42:40;;;;;;;;;;;17.00;99.90;;;;;;4981896;28;20100;-65
2021/09/26 11:45:11;;;;;;;0.70;0.52;;;17.20;99.90;;;;;;4983056;28;20016;-66
2021/09/26 11:47:38;;;;;;;1.30;0.35;;;17.20;99.90;;;;;;4981920;28;20899;-67
2021/09/26 11:50:08;;;;;;;1.25;0.60;;;17.10;99.90;;;;;;4966307;28;20432;-65
2021/09/26 11:52:41;;;;;;;0.73;0.45;;;17.00;99.90;;;;;;4980970;28;20059;-67
2021/09/26 11:55:09;;;;;;;0.98;0.65;;;17.00;99.90;;;;;;4981512;28;20066;-68
2021/09/26 11:57:36;;;;;;;0.60;0.60;;;17.10;99.90;;;;;;4981605;28;20507;-65
2021/09/26 12:00:05;;;;;;;1.40;0.70;;;16.90;99.90;;;;;;4985336;28;20828;-66
2021/09/26 12:02:33;;;;;;;0.63;0.63;;;17.00;99.90;;;;;;4982853;28;20137;-66
2021/09/26 12:05:01;;;;;;;1.40;0.90;;;16.90;99.90;;;;;;4980016;28;20085;-69
2021/09/26 12:07:32;;;;;;;3.95;1.42;;;16.70;99.90;;;;;;4981646;28;20635;-66
2021/09/26 12:09:59;;;;;;;0.80;0.47;;;16.60;99.90;;;;;;4983699;28;20076;-68
2021/09/26 12:12:28;;;;;;;2.38;0.80;;;16.70;99.90;;;;;;4981398;28;20044;-68
2021/09/26 12:15:01;;;;;;;0.70;0.50;;;16.70;99.90;;;;;;4981341;28;20054;-68
2021/09/26 12:17:30;;;;;;;0.85;0.52;;;16.70;99.90;;;;;;4983526;28;20073;-66
2021/09/26 12:20:03;;;;;;;0.40;0.30;;;16.80;99.90;;;;;;4981873;28;20434;-67
2021/09/26 12:22:31;;;;;;;1.48;1.00;;;16.80;99.90;;;;;;4983520;28;20120;-67
2021/09/26 12:25:09;;;;;;;2.75;0.93;;;16.90;99.90;;;;;;4979729;28;20790;-66
2021/09/26 12:27:36;;;;;;;0.80;0.60;;;16.90;99.90;;;;;;4983304;28;20081;-68
2021/09/26 12:30:10;;;;;;;1.73;1.00;;;16.90;99.90;;;;;;4981025;28;20241;-67
2021/09/26 12:32:42;;;;;;;1.05;0.52;;;16.80;99.90;;;;;;4983665;28;20108;-68
2021/09/26 12:35:14;;;;;;;1.77;0.60;;;16.90;99.90;;;;;;4977967;28;20104;-66
2021/09/26 12:37:50;;;;;;;1.02;0.63;;;16.90;99.90;;;;;;4981741;28;20097;-69
2021/09/26 12:40:24;;;;;;;0.63;0.55;;;16.90;99.90;;;;;;4980307;28;20093;-66
2021/09/26 12:42:54;;;;;;;1.08;0.80;;;16.90;99.90;;;;;;4979160;28;20108;-68
2021/09/26 12:45:26;;;;;;;1.23;0.70;;;16.70;99.90;;;;;;4980225;28;20132;-66
2021/09/26 12:47:55;;;;;;;1.85;0.65;;;16.60;99.90;;;;;;4974647;28;20050;-67
2021/09/26 12:50:24;;;;;;;1.23;0.85;;;16.40;99.90;;;;;;4983135;28;20054;-66
2021/09/26 12:52:56;;;;;;;0.68;0.68;;;16.40;99.90;;;;;;4977339;28;20061;-67
2021/09/26 12:55:30;;;;;;;0.88;0.40;;;16.40;99.90;;;;;;4984443;28;20080;-65
2021/09/26 12:57:57;;;;;;;2.58;0.50;;;16.50;99.90;;;;;;4981191;28;20720;-68
2021/09/26 13:00:41;;;;;;;1.52;0.95;;;16.60;99.90;;;;;;4982190;28;20077;-65
2021/09/26 13:03:18;;;;;;;2.20;1.08;;;16.70;99.90;;;;;;4979053;28;20049;-66
2021/09/26 13:05:56;;;;;;;3.42;1.50;;;16.80;99.90;;;;;;4981704;28;20666;-68
2021/09/26 13:08:36;;;;;;;2.80;1.10;;;17.00;99.90;;;;;;4980272;28;20073;-66
2021/09/26 13:11:09;;;;;;;4.00;0.43;;;16.70;99.90;;;;;;4970968;28;20536;-67
2021/09/26 13:14:00;;;;;;;8.13;2.13;;;16.80;99.90;;;;;;4981961;28;20066;-65
2021/09/26 13:16:37;;;;;;;2.42;0.98;;;16.80;99.90;;;;;;4980272;28;20050;-68